sensor_id;sensor_type;location;lat;lon;timestamp;P1;durP1;ratioP1;P2;durP2;ratioP2
79212;SDS011;68639;52.380;9.822;2024-03-23T00:55:15;57.77;;;20.03;;
79212;SDS011;68639;52.380;9.822;2024-03-23T00:57:41;50.37;;;18.47;;
79212;SDS011;68639;52.380;9.822;2024-03-23T01:00:06;53.80;;;19.30;;
79212;SDS011;68639;52.380;9.822;2024-03-23T01:02:32;50.70;;;18.50;;
79212;SDS011;68639;52.380;9.822;2024-03-23T01:04:57;48.60;;;18.20;;
79212;SDS011;68639;52.380;9.822;2024-03-23T01:07:22;51.53;;;18.40;;
79212;SDS011;68639;52.380;9.822;2024-03-23T01:09:47;46.67;;;18.63;;
79212;SDS011;68639;52.380;9.822;2024-03-23T01:12:13;59.77;;;19.30;;
79212;SDS011;68639;52.380;9.822;2024-03-23T01:14:38;51.83;;;18.73;;
79212;SDS011;68639;52.380;9.822;2024-03-23T01:17:03;52.90;;;18.90;;
79212;SDS011;68639;52.380;9.822;2024-03-23T01:19:28;47.93;;;18.93;;
79212;SDS011;68639;52.380;9.822;2024-03-23T01:21:53;45.27;;;16.77;;
79212;SDS011;68639;52.380;9.822;2024-03-23T01:24:19;46.27;;;17.57;;
79212;SDS011;68639;52.380;9.822;2024-03-23T01:26:44;50.73;;;18.03;;
79212;SDS011;68639;52.380;9.822;2024-03-23T01:29:09;48.63;;;16.33;;
79212;SDS011;68639;52.380;9.822;2024-03-23T01:31:34;48.13;;;17.80;;
79212;SDS011;68639;52.380;9.822;2024-03-23T01:33:59;38.33;;;15.87;;
79212;SDS011;68639;52.380;9.822;2024-03-23T01:36:25;35.97;;;14.47;;
79212;SDS011;68639;52.380;9.822;2024-03-23T01:38:50;46.47;;;16.10;;
79212;SDS011;68639;52.380;9.822;2024-03-23T01:41:16;40.33;;;14.67;;
79212;SDS011;68639;52.380;9.822;2024-03-23T01:43:42;31.53;;;12.23;;
79212;SDS011;68639;52.380;9.822;2024-03-23T01:46:08;33.23;;;11.80;;
79212;SDS011;68639;52.380;9.822;2024-03-23T01:48:33;32.60;;;11.80;;
79212;SDS011;68639;52.380;9.822;2024-03-23T01:50:58;34.40;;;11.13;;
79212;SDS011;68639;52.380;9.822;2024-03-23T01:53:24;31.87;;;11.23;;
79212;SDS011;68639;52.380;9.822;2024-03-23T01:55:50;20.53;;;8.60;;
79212;SDS011;68639;52.380;9.822;2024-03-23T01:58:15;27.27;;;9.40;;
79212;SDS011;68639;52.380;9.822;2024-03-23T02:00:41;33.00;;;11.23;;
79212;SDS011;68639;52.380;9.822;2024-03-23T02:03:22;31.27;;;9.70;;
79212;SDS011;68639;52.380;9.822;2024-03-23T02:05:47;28.60;;;8.67;;
79212;SDS011;68639;52.380;9.822;2024-03-23T02:08:12;27.80;;;9.00;;
79212;SDS011;68639;52.380;9.822;2024-03-23T02:10:38;30.23;;;10.30;;
79212;SDS011;68639;52.380;9.822;2024-03-23T02:13:03;35.50;;;9.83;;
79212;SDS011;68639;52.380;9.822;2024-03-23T02:15:28;22.77;;;9.03;;
79212;SDS011;68639;52.380;9.822;2024-03-23T02:17:53;36.43;;;9.47;;
79212;SDS011;68639;52.380;9.822;2024-03-23T02:20:18;23.50;;;8.07;;
79212;SDS011;68639;52.380;9.822;2024-03-23T02:22:44;38.47;;;9.70;;
79212;SDS011;68639;52.380;9.822;2024-03-23T02:25:09;27.10;;;7.87;;
79212;SDS011;68639;52.380;9.822;2024-03-23T02:27:34;26.20;;;7.97;;
79212;SDS011;68639;52.380;9.822;2024-03-23T02:30:00;29.93;;;8.53;;
79212;SDS011;68639;52.380;9.822;2024-03-23T02:32:26;24.10;;;8.03;;
79212;SDS011;68639;52.380;9.822;2024-03-23T02:34:51;26.77;;;8.63;;
79212;SDS011;68639;52.380;9.822;2024-03-23T02:37:16;30.17;;;10.00;;
79212;SDS011;68639;52.380;9.822;2024-03-23T02:39:41;34.63;;;10.27;;
79212;SDS011;68639;52.380;9.822;2024-03-23T02:42:07;37.37;;;9.97;;
79212;SDS011;68639;52.380;9.822;2024-03-23T02:44:32;40.20;;;10.83;;
79212;SDS011;68639;52.380;9.822;2024-03-23T02:46:57;33.80;;;10.53;;
79212;SDS011;68639;52.380;9.822;2024-03-23T02:49:22;31.83;;;10.90;;
79212;SDS011;68639;52.380;9.822;2024-03-23T02:51:48;36.70;;;10.90;;
79212;SDS011;68639;52.380;9.822;2024-03-23T02:54:16;40.07;;;11.10;;
79212;SDS011;68639;52.380;9.822;2024-03-23T02:56:41;31.20;;;10.47;;
79212;SDS011;68639;52.380;9.822;2024-03-23T02:59:06;35.63;;;11.70;;
79212;SDS011;68639;52.380;9.822;2024-03-23T03:01:32;36.20;;;11.10;;
79212;SDS011;68639;52.380;9.822;2024-03-23T03:03:57;30.80;;;10.77;;
79212;SDS011;68639;52.380;9.822;2024-03-23T03:06:25;34.97;;;11.57;;
79212;SDS011;68639;52.380;9.822;2024-03-23T03:08:50;37.93;;;11.17;;
79212;SDS011;68639;52.380;9.822;2024-03-23T03:11:15;35.83;;;12.17;;
79212;SDS011;68639;52.380;9.822;2024-03-23T03:13:41;34.23;;;11.00;;
79212;SDS011;68639;52.380;9.822;2024-03-23T03:16:08;32.33;;;10.23;;
79212;SDS011;68639;52.380;9.822;2024-03-23T03:18:33;39.03;;;10.20;;
79212;SDS011;68639;52.380;9.822;2024-03-23T03:20:59;39.50;;;11.10;;
79212;SDS011;68639;52.380;9.822;2024-03-23T03:23:24;38.20;;;11.10;;
79212;SDS011;68639;52.380;9.822;2024-03-23T03:25:49;36.30;;;11.10;;
79212;SDS011;68639;52.380;9.822;2024-03-23T03:28:14;31.47;;;11.13;;
79212;SDS011;68639;52.380;9.822;2024-03-23T03:30:39;30.23;;;9.73;;
79212;SDS011;68639;52.380;9.822;2024-03-23T03:33:05;38.03;;;12.23;;
79212;SDS011;68639;52.380;9.822;2024-03-23T03:35:30;32.07;;;10.37;;
79212;SDS011;68639;52.380;9.822;2024-03-23T03:37:55;38.20;;;10.80;;
79212;SDS011;68639;52.380;9.822;2024-03-23T03:40:20;36.50;;;9.53;;
79212;SDS011;68639;52.380;9.822;2024-03-23T03:42:45;27.93;;;9.53;;
79212;SDS011;68639;52.380;9.822;2024-03-23T03:45:11;27.37;;;9.10;;
79212;SDS011;68639;52.380;9.822;2024-03-23T03:47:36;22.87;;;8.50;;
79212;SDS011;68639;52.380;9.822;2024-03-23T03:50:01;23.80;;;8.37;;
79212;SDS011;68639;52.380;9.822;2024-03-23T03:52:26;26.63;;;8.70;;
79212;SDS011;68639;52.380;9.822;2024-03-23T03:54:55;29.13;;;10.97;;
79212;SDS011;68639;52.380;9.822;2024-03-23T03:57:20;24.87;;;9.57;;
79212;SDS011;68639;52.380;9.822;2024-03-23T03:59:45;31.27;;;9.27;;
79212;SDS011;68639;52.380;9.822;2024-03-23T04:02:11;30.90;;;9.23;;
79212;SDS011;68639;52.380;9.822;2024-03-23T04:04:36;33.93;;;10.63;;
79212;SDS011;68639;52.380;9.822;2024-03-23T04:07:01;32.80;;;9.40;;
79212;SDS011;68639;52.380;9.822;2024-03-23T04:09:27;30.33;;;9.27;;
79212;SDS011;68639;52.380;9.822;2024-03-23T04:11:52;34.40;;;10.93;;
79212;SDS011;68639;52.380;9.822;2024-03-23T04:14:17;29.23;;;9.97;;
79212;SDS011;68639;52.380;9.822;2024-03-23T04:16:42;27.47;;;10.03;;
79212;SDS011;68639;52.380;9.822;2024-03-23T04:19:08;30.33;;;9.07;;
79212;SDS011;68639;52.380;9.822;2024-03-23T04:21:33;25.87;;;7.30;;
79212;SDS011;68639;52.380;9.822;2024-03-23T04:23:59;13.40;;;4.83;;
79212;SDS011;68639;52.380;9.822;2024-03-23T04:26:24;18.77;;;6.53;;
79212;SDS011;68639;52.380;9.822;2024-03-23T04:28:50;25.40;;;6.33;;
79212;SDS011;68639;52.380;9.822;2024-03-23T04:31:15;21.07;;;5.03;;
79212;SDS011;68639;52.380;9.822;2024-03-23T04:33:40;18.30;;;5.13;;
79212;SDS011;68639;52.380;9.822;2024-03-23T04:36:05;21.77;;;5.10;;
79212;SDS011;68639;52.380;9.822;2024-03-23T04:38:32;22.53;;;5.43;;
79212;SDS011;68639;52.380;9.822;2024-03-23T04:40:57;23.00;;;4.73;;
79212;SDS011;68639;52.380;9.822;2024-03-23T04:43:23;17.43;;;4.40;;
79212;SDS011;68639;52.380;9.822;2024-03-23T04:45:48;19.30;;;4.40;;
79212;SDS011;68639;52.380;9.822;2024-03-23T04:48:14;26.43;;;9.23;;
79212;SDS011;68639;52.380;9.822;2024-03-23T04:50:39;30.23;;;7.03;;
79212;SDS011;68639;52.380;9.822;2024-03-23T04:53:05;21.73;;;7.20;;
79212;SDS011;68639;52.380;9.822;2024-03-23T04:55:30;22.63;;;6.47;;
79212;SDS011;68639;52.380;9.822;2024-03-23T04:57:56;20.50;;;6.67;;
79212;SDS011;68639;52.380;9.822;2024-03-23T05:00:21;23.13;;;6.23;;
79212;SDS011;68639;52.380;9.822;2024-03-23T05:02:48;20.67;;;6.33;;
79212;SDS011;68639;52.380;9.822;2024-03-23T05:05:13;20.40;;;5.70;;
79212;SDS011;68639;52.380;9.822;2024-03-23T05:07:38;23.40;;;5.03;;
79212;SDS011;68639;52.380;9.822;2024-03-23T05:10:04;23.23;;;5.90;;
79212;SDS011;68639;52.380;9.822;2024-03-23T05:12:29;25.13;;;6.17;;
79212;SDS011;68639;52.380;9.822;2024-03-23T05:14:54;22.27;;;6.37;;
79212;SDS011;68639;52.380;9.822;2024-03-23T05:17:19;18.33;;;5.60;;
79212;SDS011;68639;52.380;9.822;2024-03-23T05:19:45;21.83;;;7.57;;
79212;SDS011;68639;52.380;9.822;2024-03-23T05:22:10;22.47;;;8.70;;
79212;SDS011;68639;52.380;9.822;2024-03-23T05:24:35;22.13;;;5.90;;
79212;SDS011;68639;52.380;9.822;2024-03-23T05:27:01;25.07;;;5.57;;
79212;SDS011;68639;52.380;9.822;2024-03-23T05:29:26;19.13;;;4.80;;
79212;SDS011;68639;52.380;9.822;2024-03-23T05:31:51;16.37;;;3.07;;
79212;SDS011;68639;52.380;9.822;2024-03-23T05:34:17;15.57;;;2.90;;
79212;SDS011;68639;52.380;9.822;2024-03-23T05:36:42;12.10;;;2.20;;
79212;SDS011;68639;52.380;9.822;2024-03-23T05:39:08;16.63;;;3.00;;
79212;SDS011;68639;52.380;9.822;2024-03-23T05:41:33;14.10;;;2.53;;
79212;SDS011;68639;52.380;9.822;2024-03-23T05:44:00;15.67;;;2.17;;
79212;SDS011;68639;52.380;9.822;2024-03-23T05:46:26;11.13;;;1.93;;
79212;SDS011;68639;52.380;9.822;2024-03-23T05:48:51;15.83;;;2.83;;
79212;SDS011;68639;52.380;9.822;2024-03-23T05:51:16;20.13;;;2.53;;
79212;SDS011;68639;52.380;9.822;2024-03-23T05:53:42;13.33;;;2.47;;
79212;SDS011;68639;52.380;9.822;2024-03-23T05:56:07;18.60;;;3.27;;
79212;SDS011;68639;52.380;9.822;2024-03-23T05:58:32;16.27;;;3.03;;
79212;SDS011;68639;52.380;9.822;2024-03-23T06:00:58;17.53;;;3.07;;
79212;SDS011;68639;52.380;9.822;2024-03-23T06:03:25;17.27;;;3.93;;
79212;SDS011;68639;52.380;9.822;2024-03-23T06:05:51;24.63;;;4.10;;
79212;SDS011;68639;52.380;9.822;2024-03-23T06:08:16;19.80;;;4.00;;
79212;SDS011;68639;52.380;9.822;2024-03-23T06:10:41;16.50;;;3.60;;
79212;SDS011;68639;52.380;9.822;2024-03-23T06:13:06;17.97;;;3.47;;
79212;SDS011;68639;52.380;9.822;2024-03-23T06:15:33;13.83;;;4.43;;
79212;SDS011;68639;52.380;9.822;2024-03-23T06:18:02;18.50;;;4.20;;
79212;SDS011;68639;52.380;9.822;2024-03-23T06:20:28;18.47;;;4.43;;
79212;SDS011;68639;52.380;9.822;2024-03-23T06:22:54;17.90;;;4.40;;
79212;SDS011;68639;52.380;9.822;2024-03-23T06:25:19;17.90;;;4.53;;
79212;SDS011;68639;52.380;9.822;2024-03-23T06:27:44;14.03;;;3.30;;
79212;SDS011;68639;52.380;9.822;2024-03-23T06:30:09;17.93;;;5.23;;
79212;SDS011;68639;52.380;9.822;2024-03-23T06:32:35;17.13;;;6.07;;
79212;SDS011;68639;52.380;9.822;2024-03-23T06:35:00;19.80;;;3.90;;
79212;SDS011;68639;52.380;9.822;2024-03-23T06:37:30;15.97;;;3.07;;
79212;SDS011;68639;52.380;9.822;2024-03-23T06:39:55;20.23;;;3.50;;
79212;SDS011;68639;52.380;9.822;2024-03-23T06:42:21;21.60;;;4.87;;
79212;SDS011;68639;52.380;9.822;2024-03-23T06:44:46;23.33;;;7.47;;
79212;SDS011;68639;52.380;9.822;2024-03-23T06:47:11;24.00;;;3.20;;
79212;SDS011;68639;52.380;9.822;2024-03-23T06:49:36;16.93;;;3.63;;
79212;SDS011;68639;52.380;9.822;2024-03-23T06:52:01;20.43;;;4.20;;
79212;SDS011;68639;52.380;9.822;2024-03-23T06:54:27;25.70;;;4.63;;
79212;SDS011;68639;52.380;9.822;2024-03-23T06:56:52;18.20;;;4.80;;
79212;SDS011;68639;52.380;9.822;2024-03-23T06:59:18;22.87;;;4.40;;
79212;SDS011;68639;52.380;9.822;2024-03-23T07:01:43;22.80;;;4.10;;
79212;SDS011;68639;52.380;9.822;2024-03-23T07:04:08;18.80;;;6.23;;
79212;SDS011;68639;52.380;9.822;2024-03-23T07:06:33;25.30;;;7.47;;
79212;SDS011;68639;52.380;9.822;2024-03-23T07:08:58;24.93;;;7.10;;
79212;SDS011;68639;52.380;9.822;2024-03-23T07:11:24;27.27;;;5.87;;
79212;SDS011;68639;52.380;9.822;2024-03-23T07:13:49;23.13;;;8.57;;
79212;SDS011;68639;52.380;9.822;2024-03-23T07:16:15;23.63;;;7.80;;
79212;SDS011;68639;52.380;9.822;2024-03-23T07:18:41;20.97;;;6.67;;
79212;SDS011;68639;52.380;9.822;2024-03-23T07:21:06;26.60;;;5.40;;
79212;SDS011;68639;52.380;9.822;2024-03-23T07:23:32;27.37;;;5.77;;
79212;SDS011;68639;52.380;9.822;2024-03-23T07:28:22;22.23;;;6.43;;
79212;SDS011;68639;52.380;9.822;2024-03-23T07:30:47;22.23;;;5.70;;
79212;SDS011;68639;52.380;9.822;2024-03-23T07:33:13;22.33;;;6.77;;
79212;SDS011;68639;52.380;9.822;2024-03-23T07:35:38;29.20;;;11.00;;
79212;SDS011;68639;52.380;9.822;2024-03-23T07:38:03;32.00;;;8.33;;
79212;SDS011;68639;52.380;9.822;2024-03-23T07:40:30;21.60;;;10.90;;
79212;SDS011;68639;52.380;9.822;2024-03-23T07:42:55;30.37;;;10.47;;
79212;SDS011;68639;52.380;9.822;2024-03-23T07:45:21;28.47;;;7.93;;
79212;SDS011;68639;52.380;9.822;2024-03-23T07:47:46;26.53;;;7.57;;
79212;SDS011;68639;52.380;9.822;2024-03-23T07:50:11;28.03;;;11.60;;
79212;SDS011;68639;52.380;9.822;2024-03-23T07:52:36;29.97;;;7.77;;
79212;SDS011;68639;52.380;9.822;2024-03-23T07:55:01;31.70;;;7.77;;
79212;SDS011;68639;52.380;9.822;2024-03-23T07:57:28;35.37;;;8.73;;
79212;SDS011;68639;52.380;9.822;2024-03-23T07:59:53;39.97;;;11.30;;
79212;SDS011;68639;52.380;9.822;2024-03-23T08:02:18;40.07;;;11.40;;
79212;SDS011;68639;52.380;9.822;2024-03-23T08:04:43;48.90;;;11.30;;
79212;SDS011;68639;52.380;9.822;2024-03-23T08:07:08;44.80;;;12.97;;
79212;SDS011;68639;52.380;9.822;2024-03-23T08:09:34;40.47;;;11.17;;
79212;SDS011;68639;52.380;9.822;2024-03-23T08:11:59;49.13;;;12.53;;
79212;SDS011;68639;52.380;9.822;2024-03-23T08:14:24;47.30;;;13.73;;
79212;SDS011;68639;52.380;9.822;2024-03-23T08:16:49;45.57;;;11.70;;
79212;SDS011;68639;52.380;9.822;2024-03-23T08:19:16;53.50;;;13.00;;
79212;SDS011;68639;52.380;9.822;2024-03-23T08:21:41;45.23;;;13.70;;
79212;SDS011;68639;52.380;9.822;2024-03-23T08:24:06;39.13;;;13.07;;
79212;SDS011;68639;52.380;9.822;2024-03-23T08:26:32;44.67;;;14.17;;
79212;SDS011;68639;52.380;9.822;2024-03-23T08:28:57;44.30;;;13.13;;
79212;SDS011;68639;52.380;9.822;2024-03-23T08:31:23;40.60;;;13.63;;
79212;SDS011;68639;52.380;9.822;2024-03-23T08:33:48;41.63;;;12.90;;
79212;SDS011;68639;52.380;9.822;2024-03-23T08:36:13;41.50;;;12.27;;
79212;SDS011;68639;52.380;9.822;2024-03-23T08:38:39;42.33;;;12.10;;
79212;SDS011;68639;52.380;9.822;2024-03-23T08:41:05;39.67;;;11.97;;
79212;SDS011;68639;52.380;9.822;2024-03-23T08:43:32;37.53;;;11.03;;
79212;SDS011;68639;52.380;9.822;2024-03-23T08:46:07;46.40;;;11.73;;
79212;SDS011;68639;52.380;9.822;2024-03-23T08:48:34;39.43;;;11.77;;
79212;SDS011;68639;52.380;9.822;2024-03-23T08:51:02;37.27;;;10.97;;
79212;SDS011;68639;52.380;9.822;2024-03-23T08:53:28;32.67;;;9.83;;
79212;SDS011;68639;52.380;9.822;2024-03-23T08:55:55;27.93;;;9.20;;
79212;SDS011;68639;52.380;9.822;2024-03-23T08:58:20;27.20;;;8.30;;
79212;SDS011;68639;52.380;9.822;2024-03-23T09:00:45;32.20;;;8.37;;
79212;SDS011;68639;52.380;9.822;2024-03-23T09:03:11;32.43;;;8.60;;
79212;SDS011;68639;52.380;9.822;2024-03-23T09:05:39;32.03;;;8.90;;
79212;SDS011;68639;52.380;9.822;2024-03-23T09:08:05;34.60;;;8.00;;
79212;SDS011;68639;52.380;9.822;2024-03-23T09:10:30;34.13;;;8.00;;
79212;SDS011;68639;52.380;9.822;2024-03-23T09:12:55;28.57;;;7.90;;
79212;SDS011;68639;52.380;9.822;2024-03-23T09:15:21;26.90;;;7.03;;
79212;SDS011;68639;52.380;9.822;2024-03-23T09:17:46;29.07;;;7.03;;
79212;SDS011;68639;52.380;9.822;2024-03-23T09:20:11;31.90;;;7.07;;
79212;SDS011;68639;52.380;9.822;2024-03-23T09:22:36;28.27;;;6.40;;
79212;SDS011;68639;52.380;9.822;2024-03-23T09:25:01;31.50;;;7.53;;
79212;SDS011;68639;52.380;9.822;2024-03-23T09:27:27;30.33;;;7.30;;
79212;SDS011;68639;52.380;9.822;2024-03-23T09:29:52;23.37;;;6.87;;
79212;SDS011;68639;52.380;9.822;2024-03-23T09:32:17;35.33;;;7.93;;
79212;SDS011;68639;52.380;9.822;2024-03-23T09:34:43;38.00;;;7.97;;
79212;SDS011;68639;52.380;9.822;2024-03-23T09:37:08;35.67;;;8.07;;
79212;SDS011;68639;52.380;9.822;2024-03-23T09:39:33;26.63;;;6.50;;
79212;SDS011;68639;52.380;9.822;2024-03-23T09:41:58;29.90;;;7.50;;
79212;SDS011;68639;52.380;9.822;2024-03-23T09:44:24;35.07;;;7.07;;
79212;SDS011;68639;52.380;9.822;2024-03-23T09:46:51;26.40;;;6.60;;
79212;SDS011;68639;52.380;9.822;2024-03-23T09:49:16;25.40;;;6.50;;
79212;SDS011;68639;52.380;9.822;2024-03-23T09:51:42;22.70;;;5.90;;
79212;SDS011;68639;52.380;9.822;2024-03-23T09:54:07;29.80;;;6.70;;
79212;SDS011;68639;52.380;9.822;2024-03-23T09:56:32;27.50;;;6.50;;
79212;SDS011;68639;52.380;9.822;2024-03-23T09:59:03;19.37;;;5.37;;
79212;SDS011;68639;52.380;9.822;2024-03-23T10:01:31;23.10;;;4.70;;
79212;SDS011;68639;52.380;9.822;2024-03-23T10:03:57;25.40;;;4.77;;
79212;SDS011;68639;52.380;9.822;2024-03-23T10:06:22;16.93;;;4.07;;
79212;SDS011;68639;52.380;9.822;2024-03-23T10:08:49;16.40;;;4.97;;
79212;SDS011;68639;52.380;9.822;2024-03-23T10:11:15;18.63;;;4.43;;
79212;SDS011;68639;52.380;9.822;2024-03-23T10:13:44;16.80;;;4.07;;
79212;SDS011;68639;52.380;9.822;2024-03-23T10:16:09;18.83;;;4.07;;
79212;SDS011;68639;52.380;9.822;2024-03-23T10:18:38;14.30;;;3.63;;
79212;SDS011;68639;52.380;9.822;2024-03-23T10:21:10;19.80;;;3.83;;
79212;SDS011;68639;52.380;9.822;2024-03-23T10:23:36;20.07;;;4.00;;
79212;SDS011;68639;52.380;9.822;2024-03-23T10:28:50;13.87;;;3.50;;
79212;SDS011;68639;52.380;9.822;2024-03-23T10:31:16;16.90;;;3.73;;
79212;SDS011;68639;52.380;9.822;2024-03-23T10:33:45;14.60;;;3.83;;
79212;SDS011;68639;52.380;9.822;2024-03-23T10:36:11;13.03;;;3.40;;
79212;SDS011;68639;52.380;9.822;2024-03-23T10:38:36;14.07;;;3.47;;
79212;SDS011;68639;52.380;9.822;2024-03-23T10:41:01;16.03;;;3.37;;
79212;SDS011;68639;52.380;9.822;2024-03-23T10:43:27;12.23;;;2.90;;
79212;SDS011;68639;52.380;9.822;2024-03-23T10:45:52;21.43;;;4.10;;
79212;SDS011;68639;52.380;9.822;2024-03-23T10:48:17;17.63;;;3.57;;
79212;SDS011;68639;52.380;9.822;2024-03-23T10:50:43;16.47;;;2.90;;
79212;SDS011;68639;52.380;9.822;2024-03-23T10:53:08;13.00;;;2.70;;
79212;SDS011;68639;52.380;9.822;2024-03-23T10:55:33;7.17;;;2.07;;
79212;SDS011;68639;52.380;9.822;2024-03-23T10:57:59;9.00;;;1.50;;
79212;SDS011;68639;52.380;9.822;2024-03-23T11:00:25;9.73;;;2.43;;
79212;SDS011;68639;52.380;9.822;2024-03-23T11:02:50;8.80;;;1.70;;
79212;SDS011;68639;52.380;9.822;2024-03-23T11:05:28;7.83;;;2.10;;
79212;SDS011;68639;52.380;9.822;2024-03-23T11:07:53;4.70;;;1.33;;
79212;SDS011;68639;52.380;9.822;2024-03-23T11:10:28;10.40;;;2.00;;
79212;SDS011;68639;52.380;9.822;2024-03-23T11:12:55;4.50;;;1.00;;
79212;SDS011;68639;52.380;9.822;2024-03-23T11:15:20;5.57;;;1.10;;
79212;SDS011;68639;52.380;9.822;2024-03-23T11:18:05;4.03;;;1.07;;
79212;SDS011;68639;52.380;9.822;2024-03-23T11:20:34;6.70;;;2.10;;
79212;SDS011;68639;52.380;9.822;2024-03-23T11:22:59;8.33;;;2.10;;
79212;SDS011;68639;52.380;9.822;2024-03-23T11:25:25;11.17;;;2.10;;
79212;SDS011;68639;52.380;9.822;2024-03-23T11:27:51;7.67;;;2.53;;
79212;SDS011;68639;52.380;9.822;2024-03-23T11:30:17;12.23;;;3.00;;
79212;SDS011;68639;52.380;9.822;2024-03-23T11:32:46;11.37;;;3.00;;
79212;SDS011;68639;52.380;9.822;2024-03-23T11:40:38;12.73;;;3.23;;
79212;SDS011;68639;52.380;9.822;2024-03-23T11:43:12;12.63;;;2.90;;
79212;SDS011;68639;52.380;9.822;2024-03-23T11:48:04;14.80;;;3.83;;
79212;SDS011;68639;52.380;9.822;2024-03-23T11:50:29;14.50;;;3.23;;
79212;SDS011;68639;52.380;9.822;2024-03-23T11:53:05;12.50;;;3.17;;
79212;SDS011;68639;52.380;9.822;2024-03-23T11:55:38;13.80;;;3.50;;
79212;SDS011;68639;52.380;9.822;2024-03-23T11:58:03;12.10;;;3.60;;
79212;SDS011;68639;52.380;9.822;2024-03-23T12:00:28;8.53;;;2.10;;
79212;SDS011;68639;52.380;9.822;2024-03-23T12:02:59;6.63;;;1.97;;
79212;SDS011;68639;52.380;9.822;2024-03-23T12:05:25;7.67;;;1.90;;
79212;SDS011;68639;52.380;9.822;2024-03-23T12:07:51;9.43;;;2.50;;
79212;SDS011;68639;52.380;9.822;2024-03-23T12:10:16;10.63;;;1.90;;
79212;SDS011;68639;52.380;9.822;2024-03-23T12:12:43;8.53;;;2.10;;
79212;SDS011;68639;52.380;9.822;2024-03-23T12:15:09;5.87;;;1.67;;
79212;SDS011;68639;52.380;9.822;2024-03-23T12:17:34;7.83;;;1.87;;
79212;SDS011;68639;52.380;9.822;2024-03-23T12:20:00;5.07;;;1.90;;
79212;SDS011;68639;52.380;9.822;2024-03-23T12:22:25;6.33;;;2.00;;
79212;SDS011;68639;52.380;9.822;2024-03-23T12:24:51;4.27;;;2.10;;
79212;SDS011;68639;52.380;9.822;2024-03-23T12:27:16;6.87;;;2.20;;
79212;SDS011;68639;52.380;9.822;2024-03-23T12:29:42;6.60;;;2.23;;
79212;SDS011;68639;52.380;9.822;2024-03-23T12:32:08;7.50;;;2.17;;
79212;SDS011;68639;52.380;9.822;2024-03-23T12:34:33;10.23;;;2.80;;
79212;SDS011;68639;52.380;9.822;2024-03-23T12:36:59;8.40;;;2.30;;
79212;SDS011;68639;52.380;9.822;2024-03-23T12:39:24;5.67;;;2.50;;
79212;SDS011;68639;52.380;9.822;2024-03-23T12:41:49;6.27;;;2.30;;
79212;SDS011;68639;52.380;9.822;2024-03-23T12:44:15;8.37;;;2.93;;
79212;SDS011;68639;52.380;9.822;2024-03-23T12:46:40;8.00;;;2.77;;
79212;SDS011;68639;52.380;9.822;2024-03-23T12:49:06;7.73;;;2.70;;
79212;SDS011;68639;52.380;9.822;2024-03-23T12:51:31;8.77;;;2.87;;
79212;SDS011;68639;52.380;9.822;2024-03-23T12:53:56;8.13;;;2.60;;
79212;SDS011;68639;52.380;9.822;2024-03-23T12:56:22;6.77;;;2.57;;
79212;SDS011;68639;52.380;9.822;2024-03-23T12:58:47;4.33;;;1.27;;
79212;SDS011;68639;52.380;9.822;2024-03-23T13:01:19;6.70;;;1.50;;
79212;SDS011;68639;52.380;9.822;2024-03-23T13:03:47;6.00;;;1.50;;
79212;SDS011;68639;52.380;9.822;2024-03-23T13:06:13;5.30;;;1.20;;
79212;SDS011;68639;52.380;9.822;2024-03-23T13:08:39;5.93;;;1.00;;
79212;SDS011;68639;52.380;9.822;2024-03-23T13:11:05;3.37;;;1.13;;
79212;SDS011;68639;52.380;9.822;2024-03-23T13:13:33;3.57;;;1.10;;
79212;SDS011;68639;52.380;9.822;2024-03-23T13:15:58;4.63;;;0.90;;
79212;SDS011;68639;52.380;9.822;2024-03-23T13:18:24;2.53;;;1.10;;
79212;SDS011;68639;52.380;9.822;2024-03-23T13:20:49;5.40;;;1.10;;
79212;SDS011;68639;52.380;9.822;2024-03-23T13:23:14;5.27;;;1.20;;
79212;SDS011;68639;52.380;9.822;2024-03-23T13:25:39;2.93;;;1.10;;
79212;SDS011;68639;52.380;9.822;2024-03-23T13:28:05;6.23;;;1.47;;
79212;SDS011;68639;52.380;9.822;2024-03-23T13:30:30;6.40;;;1.60;;
79212;SDS011;68639;52.380;9.822;2024-03-23T13:32:55;6.07;;;1.60;;
79212;SDS011;68639;52.380;9.822;2024-03-23T13:35:21;6.30;;;1.63;;
79212;SDS011;68639;52.380;9.822;2024-03-23T13:37:46;4.67;;;1.57;;
79212;SDS011;68639;52.380;9.822;2024-03-23T13:40:11;4.97;;;1.60;;
79212;SDS011;68639;52.380;9.822;2024-03-23T13:42:37;7.63;;;2.10;;
79212;SDS011;68639;52.380;9.822;2024-03-23T13:45:02;6.97;;;2.00;;
79212;SDS011;68639;52.380;9.822;2024-03-23T13:47:27;8.23;;;1.90;;
79212;SDS011;68639;52.380;9.822;2024-03-23T13:49:53;6.90;;;2.23;;
79212;SDS011;68639;52.380;9.822;2024-03-23T13:52:18;7.77;;;2.53;;
79212;SDS011;68639;52.380;9.822;2024-03-23T13:54:47;5.57;;;2.10;;
79212;SDS011;68639;52.380;9.822;2024-03-23T13:57:13;7.43;;;2.13;;
79212;SDS011;68639;52.380;9.822;2024-03-23T13:59:38;7.30;;;1.87;;
79212;SDS011;68639;52.380;9.822;2024-03-23T14:02:03;9.87;;;2.40;;
79212;SDS011;68639;52.380;9.822;2024-03-23T14:04:29;9.17;;;2.27;;
79212;SDS011;68639;52.380;9.822;2024-03-23T14:06:54;7.87;;;1.83;;
79212;SDS011;68639;52.380;9.822;2024-03-23T14:09:19;7.43;;;1.67;;
79212;SDS011;68639;52.380;9.822;2024-03-23T14:11:50;7.37;;;1.87;;
79212;SDS011;68639;52.380;9.822;2024-03-23T14:14:15;7.63;;;1.93;;
79212;SDS011;68639;52.380;9.822;2024-03-23T14:16:42;6.43;;;1.53;;
79212;SDS011;68639;52.380;9.822;2024-03-23T14:19:07;6.60;;;2.13;;
79212;SDS011;68639;52.380;9.822;2024-03-23T14:21:32;7.97;;;1.80;;
79212;SDS011;68639;52.380;9.822;2024-03-23T14:23:59;10.33;;;2.10;;
79212;SDS011;68639;52.380;9.822;2024-03-23T14:26:25;6.90;;;1.80;;
79212;SDS011;68639;52.380;9.822;2024-03-23T14:28:51;5.00;;;1.60;;
79212;SDS011;68639;52.380;9.822;2024-03-23T14:31:16;6.17;;;2.10;;
79212;SDS011;68639;52.380;9.822;2024-03-23T14:33:41;8.33;;;2.03;;
79212;SDS011;68639;52.380;9.822;2024-03-23T14:36:11;9.43;;;2.00;;
79212;SDS011;68639;52.380;9.822;2024-03-23T14:38:36;11.10;;;2.47;;
79212;SDS011;68639;52.380;9.822;2024-03-23T14:41:01;7.87;;;2.43;;
79212;SDS011;68639;52.380;9.822;2024-03-23T14:43:28;6.47;;;2.10;;
79212;SDS011;68639;52.380;9.822;2024-03-23T14:46:06;5.10;;;1.40;;
79212;SDS011;68639;52.380;9.822;2024-03-23T14:48:32;3.20;;;1.07;;
79212;SDS011;68639;52.380;9.822;2024-03-23T14:50:57;5.23;;;1.10;;
79212;SDS011;68639;52.380;9.822;2024-03-23T14:53:23;30.75;;;9.40;;
79212;SDS011;68639;52.380;9.822;2024-03-23T14:55:49;2.33;;;0.97;;
79212;SDS011;68639;52.380;9.822;2024-03-23T14:58:14;37.97;;;11.77;;
79212;SDS011;68639;52.380;9.822;2024-03-23T15:00:39;3.77;;;1.10;;
79212;SDS011;68639;52.380;9.822;2024-03-23T15:03:05;1.87;;;0.60;;
79212;SDS011;68639;52.380;9.822;2024-03-23T15:05:30;4.97;;;0.80;;
79212;SDS011;68639;52.380;9.822;2024-03-23T15:07:55;3.20;;;0.97;;
79212;SDS011;68639;52.380;9.822;2024-03-23T15:10:20;3.47;;;0.90;;
79212;SDS011;68639;52.380;9.822;2024-03-23T15:12:46;2.93;;;1.10;;
79212;SDS011;68639;52.380;9.822;2024-03-23T15:15:11;5.10;;;1.33;;
79212;SDS011;68639;52.380;9.822;2024-03-23T15:17:37;9.27;;;1.60;;
79212;SDS011;68639;52.380;9.822;2024-03-23T15:20:06;7.37;;;1.27;;
79212;SDS011;68639;52.380;9.822;2024-03-23T15:22:31;9.20;;;2.40;;
79212;SDS011;68639;52.380;9.822;2024-03-23T15:24:57;7.63;;;1.97;;
79212;SDS011;68639;52.380;9.822;2024-03-23T15:27:22;7.33;;;2.10;;
79212;SDS011;68639;52.380;9.822;2024-03-23T15:29:47;5.83;;;1.77;;
79212;SDS011;68639;52.380;9.822;2024-03-23T15:32:12;6.03;;;1.20;;
79212;SDS011;68639;52.380;9.822;2024-03-23T15:34:39;6.87;;;1.10;;